createdAt,value
2019-02-17T00:00:49.600Z,67.07
2019-02-17T00:03:19.974Z,81.57
2019-02-17T00:05:50.211Z,68.40
2019-02-17T00:08:19.889Z,63.43
2019-02-17T00:10:49.463Z,71.42
2019-02-17T00:13:19.871Z,76.67
2019-02-17T00:15:49.439Z,80.43
2019-02-17T00:18:19.839Z,80.43
2019-02-17T00:20:49.403Z,66.57
2019-02-17T00:23:19.743Z,84.57
2019-02-17T00:25:49.325Z,68.90
2019-02-17T00:28:20.206Z,66.33
2019-02-17T00:30:49.884Z,105.77
2019-02-17T00:33:20.813Z,58.02
2019-02-17T00:35:50.459Z,59.93
2019-02-17T00:38:20.714Z,59.17
2019-02-17T00:40:50.371Z,72.00
2019-02-17T00:43:22.689Z,60.73
2019-02-17T00:45:52.999Z,66.43
2019-02-17T00:48:22.695Z,62.27
2019-02-17T00:50:52.927Z,70.93
2019-02-17T00:53:23.251Z,136.00
2019-02-17T00:55:53.572Z,58.80
2019-02-17T00:58:23.907Z,67.37
2019-02-17T01:00:56.159Z,58.97
2019-02-17T01:03:26.168Z,64.73
2019-02-17T01:05:56.470Z,58.53
2019-02-17T01:08:26.839Z,63.23
2019-02-17T01:10:57.155Z,65.20
2019-02-17T01:13:27.475Z,61.02
2019-02-17T01:15:58.079Z,61.90
2019-02-17T01:18:27.747Z,73.73
2019-02-17T01:20:57.993Z,71.33
2019-02-17T01:23:28.331Z,58.53
2019-02-17T01:25:58.638Z,61.97
2019-02-17T01:28:29.132Z,59.20
2019-02-17T01:30:59.455Z,65.37
2019-02-17T01:33:29.767Z,59.67
2019-02-17T01:36:00.263Z,57.37
2019-02-17T01:38:29.932Z,57.77
2019-02-17T01:41:00.255Z,53.10
2019-02-17T01:43:29.934Z,55.73
2019-02-17T01:46:00.171Z,66.03
2019-02-17T01:48:29.845Z,54.63
2019-02-17T01:51:00.198Z,49.20
2019-02-17T01:53:30.519Z,54.73
2019-02-17T01:56:00.259Z,55.38
2019-02-17T01:58:30.486Z,48.17
2019-02-17T02:01:00.183Z,53.77
2019-02-17T02:03:30.401Z,50.40
2019-02-17T02:06:00.047Z,48.57
2019-02-17T02:08:30.283Z,44.93
2019-02-17T02:11:00.619Z,52.87
2019-02-17T02:13:30.515Z,54.08
2019-02-17T02:16:00.091Z,47.53
2019-02-17T02:18:30.315Z,48.70
2019-02-17T02:21:00.003Z,47.97
2019-02-17T02:23:30.255Z,48.67
2019-02-17T02:25:59.931Z,47.40
2019-02-17T02:28:30.186Z,45.70
2019-02-17T02:30:59.864Z,44.33
2019-02-17T02:33:30.119Z,36.40
2019-02-17T02:35:59.767Z,39.43
2019-02-17T02:38:30.003Z,37.50
2019-02-17T02:41:00.332Z,38.57
2019-02-17T02:43:30.000Z,36.27
2019-02-17T02:46:00.215Z,32.90
2019-02-17T02:48:30.572Z,33.77
2019-02-17T02:51:00.908Z,31.53
2019-02-17T02:53:30.579Z,33.50
2019-02-17T02:56:00.833Z,29.10
2019-02-17T02:58:30.527Z,31.17
2019-02-17T03:01:01.048Z,35.73
2019-02-17T03:03:30.714Z,33.03
2019-02-17T03:06:10.959Z,28.57
2019-02-17T03:08:40.647Z,31.63
2019-02-17T03:11:10.315Z,27.03
2019-02-17T03:13:40.517Z,28.40
2019-02-17T03:16:10.841Z,27.03
2019-02-17T03:18:41.142Z,25.97
2019-02-17T03:21:10.823Z,25.93
2019-02-17T03:23:41.072Z,27.03
2019-02-17T03:26:11.396Z,24.77
2019-02-17T03:28:41.072Z,21.40
2019-02-17T03:31:10.636Z,24.43
2019-02-17T03:33:40.869Z,24.17
2019-02-17T03:36:11.198Z,24.50
2019-02-17T03:38:41.508Z,24.07
2019-02-17T03:41:11.843Z,29.53
2019-02-17T03:43:42.160Z,22.13
2019-02-17T03:46:12.967Z,24.27
2019-02-17T03:48:43.212Z,23.70
2019-02-17T03:51:12.876Z,23.57
2019-02-17T03:53:43.086Z,23.77
2019-02-17T03:56:12.755Z,25.10
2019-02-17T03:58:42.991Z,28.17
2019-02-17T04:01:12.681Z,24.77
2019-02-17T04:03:42.891Z,27.17
2019-02-17T04:06:12.560Z,27.47
2019-02-17T04:08:42.815Z,28.13
2019-02-17T04:11:12.462Z,23.47
2019-02-17T04:13:42.698Z,24.13
2019-02-17T04:16:12.363Z,23.13
2019-02-17T04:18:42.591Z,24.17
2019-02-17T04:21:13.010Z,26.53
2019-02-17T04:23:43.355Z,23.87
2019-02-17T04:26:13.022Z,26.23
2019-02-17T04:28:42.598Z,27.77
2019-02-17T04:31:12.929Z,30.93
2019-02-17T04:33:42.612Z,29.97
2019-02-17T04:36:12.833Z,24.00
2019-02-17T04:38:42.487Z,29.43
2019-02-17T04:41:12.819Z,28.30
2019-02-17T04:43:42.493Z,27.50
2019-02-17T04:46:12.728Z,30.70
2019-02-17T04:48:42.394Z,32.13
2019-02-17T04:51:12.714Z,30.17
2019-02-17T04:53:42.386Z,29.40
2019-02-17T04:56:12.615Z,32.17
2019-02-17T04:58:42.940Z,34.50
2019-02-17T05:01:13.243Z,33.40
2019-02-17T05:03:42.988Z,31.93
2019-02-17T05:06:13.227Z,29.87
2019-02-17T05:08:42.890Z,27.70
2019-02-17T05:11:13.103Z,29.37
2019-02-17T05:13:42.792Z,28.63
2019-02-17T05:16:13.111Z,28.43
2019-02-17T05:18:43.352Z,24.40
2019-02-17T05:21:13.660Z,24.80
2019-02-17T05:23:43.348Z,26.83
2019-02-17T05:26:12.919Z,29.53
2019-02-17T05:28:42.506Z,25.67
2019-02-17T05:31:12.091Z,24.60
2019-02-17T05:33:41.669Z,26.40
2019-02-17T05:36:11.244Z,19.77
2019-02-17T05:38:41.500Z,21.40
2019-02-17T05:41:11.795Z,25.13
2019-02-17T05:43:42.136Z,20.62
2019-02-17T05:46:12.464Z,19.60
2019-02-17T05:48:42.800Z,23.43
2019-02-17T05:51:13.099Z,27.20
2019-02-17T05:53:42.794Z,19.53
2019-02-17T05:56:12.363Z,18.63
2019-02-17T05:58:41.947Z,20.77
2019-02-17T06:01:12.194Z,24.23
2019-02-17T06:03:42.732Z,26.07
2019-02-17T06:06:14.874Z,21.93
2019-02-17T06:08:44.364Z,24.27
2019-02-17T06:11:13.973Z,23.60
2019-02-17T06:13:43.592Z,27.23
2019-02-17T06:16:13.819Z,31.60
2019-02-17T06:18:43.474Z,23.37
2019-02-17T06:21:13.636Z,26.07
2019-02-17T06:23:44.048Z,25.30
2019-02-17T06:26:13.710Z,20.87
2019-02-17T06:28:44.187Z,20.70
2019-02-17T06:31:14.785Z,23.63
2019-02-17T06:33:44.635Z,22.07
2019-02-17T06:36:14.211Z,23.10
2019-02-17T06:38:44.032Z,21.27
2019-02-17T06:41:14.260Z,21.40
2019-02-17T06:43:44.835Z,21.60
2019-02-17T06:46:18.317Z,20.73
2019-02-17T06:48:48.552Z,17.03
2019-02-17T06:51:18.863Z,16.47
2019-02-17T06:53:49.379Z,20.10
2019-02-17T06:56:38.983Z,18.93
2019-02-17T06:59:09.239Z,17.90
2019-02-17T07:01:39.552Z,17.10
2019-02-17T07:04:09.901Z,26.57
2019-02-17T07:06:46.980Z,18.57
2019-02-17T07:09:17.349Z,20.17
2019-02-17T07:11:46.992Z,22.03
2019-02-17T07:14:16.634Z,18.10
2019-02-17T07:16:47.055Z,23.30
2019-02-17T07:19:16.734Z,20.50
2019-02-17T07:21:46.485Z,19.37
2019-02-17T07:24:15.975Z,19.07
2019-02-17T07:26:47.398Z,18.27
2019-02-17T07:29:17.040Z,24.60
2019-02-17T07:31:46.600Z,23.07
2019-02-17T07:34:16.150Z,20.47
2019-02-17T07:36:45.748Z,18.37
2019-02-17T07:39:15.326Z,15.90
2019-02-17T07:41:45.592Z,21.13
2019-02-17T07:44:15.231Z,22.60
2019-02-17T07:46:45.460Z,18.13
2019-02-17T07:49:15.124Z,23.43
2019-02-17T07:51:45.379Z,21.53
2019-02-17T07:54:15.691Z,25.57
2019-02-17T07:56:45.386Z,21.73
2019-02-17T07:59:15.627Z,21.97
2019-02-17T08:01:45.952Z,24.47
2019-02-17T08:04:16.287Z,20.87
2019-02-17T08:06:46.007Z,24.83
2019-02-17T08:09:15.595Z,27.70
2019-02-17T08:11:45.893Z,20.93
2019-02-17T08:14:15.569Z,20.90
2019-02-17T08:16:45.791Z,23.57
2019-02-17T08:19:15.464Z,21.43
2019-02-17T08:21:45.063Z,20.70
2019-02-17T08:24:14.672Z,19.80
2019-02-17T08:26:44.948Z,17.33
2019-02-17T08:29:15.306Z,21.03
2019-02-17T08:31:54.929Z,17.03
2019-02-17T08:34:16.245Z,17.27
2019-02-17T08:36:45.885Z,17.30
2019-02-17T08:39:16.099Z,15.07
2019-02-17T08:41:46.452Z,12.40
2019-02-17T08:44:16.763Z,14.23
2019-02-17T08:46:47.131Z,12.17
2019-02-17T08:49:16.983Z,10.37
2019-02-17T08:51:47.247Z,14.67
2019-02-17T08:54:16.900Z,11.00
2019-02-17T08:56:46.542Z,14.97
2019-02-17T08:59:16.106Z,17.33
2019-02-17T09:01:45.718Z,15.13
2019-02-17T09:04:15.943Z,12.53
2019-02-17T09:06:45.610Z,9.87
2019-02-17T09:09:15.807Z,11.43
2019-02-17T09:11:46.159Z,9.53
2019-02-17T09:14:16.460Z,11.33
2019-02-17T09:16:46.791Z,10.13
2019-02-17T09:19:16.479Z,9.63
2019-02-17T09:21:47.018Z,12.83
2019-02-17T09:24:17.244Z,11.17
2019-02-17T09:26:47.593Z,11.93
2019-02-17T09:29:17.236Z,9.60
2019-02-17T09:31:47.499Z,10.13
2019-02-17T09:34:17.908Z,12.57
2019-02-17T09:36:47.581Z,14.43
2019-02-17T09:39:17.145Z,10.53
2019-02-17T09:41:46.837Z,7.73
2019-02-17T09:44:16.498Z,9.93
2019-02-17T09:46:46.082Z,12.10
2019-02-17T09:49:15.691Z,8.70
2019-02-17T09:51:45.973Z,11.47
2019-02-17T09:54:16.296Z,11.33
2019-02-17T09:56:46.730Z,11.37
2019-02-17T09:59:16.446Z,10.00
2019-02-17T10:01:46.712Z,11.40
2019-02-17T10:04:17.119Z,15.53
2019-02-17T10:06:46.787Z,7.97
2019-02-17T10:09:16.372Z,8.50
2019-02-17T10:11:46.642Z,10.43
2019-02-17T10:14:16.305Z,8.87
2019-02-17T10:16:46.548Z,9.60
2019-02-17T10:19:16.215Z,11.47
2019-02-17T10:21:46.584Z,11.67
2019-02-17T10:24:16.909Z,11.87
2019-02-17T10:26:47.249Z,12.37
2019-02-17T10:29:16.963Z,13.40
2019-02-17T10:31:47.251Z,10.47
2019-02-17T10:34:17.566Z,8.97
2019-02-17T10:36:47.234Z,12.93
2019-02-17T10:39:17.456Z,10.70
2019-02-17T10:41:47.150Z,11.37
2019-02-17T10:44:16.780Z,9.77
2019-02-17T10:46:47.068Z,7.67
2019-02-17T10:49:16.739Z,10.07
2019-02-17T10:51:46.302Z,10.23
2019-02-17T10:54:15.791Z,12.40
2019-02-17T10:56:46.045Z,13.87
2019-02-17T10:59:15.724Z,11.40
2019-02-17T11:01:45.379Z,11.27
2019-02-17T11:04:15.042Z,12.00
2019-02-17T11:06:45.251Z,11.40
2019-02-17T11:09:21.851Z,16.63
2019-02-17T11:11:51.772Z,12.00
2019-02-17T11:14:21.350Z,11.10
2019-02-17T11:16:51.377Z,10.77
2019-02-17T11:19:20.875Z,13.33
2019-02-17T11:21:50.536Z,10.97
2019-02-17T11:24:20.695Z,10.67
2019-02-17T11:26:51.016Z,12.83
2019-02-17T11:29:20.672Z,15.83
2019-02-17T11:31:50.931Z,12.87
2019-02-17T11:34:20.591Z,10.90
2019-02-17T11:36:50.851Z,8.43
2019-02-17T11:39:21.703Z,14.23
2019-02-17T11:41:52.251Z,12.23
2019-02-17T11:44:21.911Z,12.03
2019-02-17T11:46:51.548Z,11.27
2019-02-17T11:49:21.103Z,10.90
2019-02-17T11:51:51.384Z,11.90
2019-02-17T11:54:21.039Z,12.80
2019-02-17T11:56:50.606Z,12.93
2019-02-17T11:59:20.438Z,13.87
2019-02-17T12:01:50.591Z,13.70
2019-02-17T12:04:20.294Z,11.33
2019-02-17T12:06:50.873Z,12.10
2019-02-17T12:09:21.214Z,13.27
2019-02-17T12:11:50.875Z,15.97
2019-02-17T12:14:20.483Z,11.07
2019-02-17T12:16:50.063Z,16.10
2019-02-17T12:19:19.721Z,11.63
2019-02-17T12:21:59.585Z,12.27
2019-02-17T12:24:36.418Z,14.27
2019-02-17T12:27:10.977Z,17.10
2019-02-17T12:29:57.391Z,17.47
2019-02-17T12:32:30.788Z,15.93
2019-02-17T12:35:01.127Z,16.83
2019-02-17T12:37:30.770Z,13.32
2019-02-17T12:40:01.080Z,13.33
2019-02-17T12:42:31.435Z,12.53
2019-02-17T12:45:01.833Z,15.40
2019-02-17T12:47:31.487Z,18.43
2019-02-17T12:50:01.069Z,16.07
2019-02-17T12:52:31.308Z,18.90
2019-02-17T12:55:01.070Z,12.63
2019-02-17T12:57:31.320Z,15.90
2019-02-17T13:00:01.023Z,13.47
2019-02-17T13:02:30.603Z,15.53
2019-02-17T13:05:00.865Z,16.80
2019-02-17T13:07:30.535Z,13.97
2019-02-17T13:10:00.309Z,16.83
2019-02-17T13:12:29.883Z,15.07
2019-02-17T13:14:59.455Z,15.33
2019-02-17T13:17:29.058Z,16.00
2019-02-17T13:19:59.280Z,13.00
2019-02-17T13:22:29.021Z,15.17
2019-02-17T13:24:59.241Z,13.97
2019-02-17T13:27:28.916Z,13.40
2019-02-17T13:29:59.176Z,15.53
2019-02-17T13:32:28.842Z,16.17
2019-02-17T13:34:58.423Z,13.17
2019-02-17T13:37:30.124Z,21.67
2019-02-17T13:39:59.158Z,13.23
2019-02-17T13:42:28.746Z,16.10
2019-02-17T13:44:59.131Z,12.33
2019-02-17T13:47:28.841Z,14.07
2019-02-17T13:49:58.443Z,18.23
2019-02-17T13:52:29.350Z,16.62
2019-02-17T13:54:59.547Z,15.00
2019-02-17T13:57:29.221Z,15.83
2019-02-17T13:59:59.478Z,15.40
2019-02-17T14:02:29.143Z,14.43
2019-02-17T14:04:58.715Z,14.27
2019-02-17T14:07:28.279Z,17.90
2019-02-17T14:09:57.903Z,16.70
2019-02-17T14:12:28.775Z,16.93
2019-02-17T14:14:58.329Z,15.40
2019-02-17T14:17:28.158Z,21.63
2019-02-17T14:19:58.383Z,16.03
2019-02-17T14:22:28.867Z,13.00
2019-02-17T14:24:58.533Z,16.30
2019-02-17T14:27:29.095Z,17.20
2019-02-17T14:29:59.409Z,12.47
2019-02-17T14:32:29.545Z,20.40
2019-02-17T14:34:59.123Z,17.33
2019-02-17T14:37:29.517Z,15.33
2019-02-17T14:39:59.843Z,17.13
2019-02-17T14:42:30.386Z,15.97
2019-02-17T14:45:00.098Z,17.10
2019-02-17T14:47:30.546Z,13.67
2019-02-17T14:50:00.875Z,19.57
2019-02-17T14:52:30.791Z,18.47
2019-02-17T14:55:00.415Z,18.00
2019-02-17T14:57:30.355Z,17.67
2019-02-17T14:59:59.855Z,15.27
2019-02-17T15:02:29.628Z,16.20
2019-02-17T15:04:59.194Z,18.10
2019-02-17T15:07:29.400Z,16.37
2019-02-17T15:09:59.801Z,16.57
2019-02-17T15:12:30.099Z,18.80
2019-02-17T15:14:59.767Z,19.43
2019-02-17T15:17:30.092Z,19.77
2019-02-17T15:20:00.450Z,19.63
2019-02-17T15:22:30.103Z,18.53
2019-02-17T15:25:00.346Z,20.70
2019-02-17T15:27:30.663Z,15.73
2019-02-17T15:30:00.547Z,25.67
2019-02-17T15:32:30.772Z,20.73
2019-02-17T15:35:00.602Z,18.47
2019-02-17T15:37:30.163Z,19.17
2019-02-17T15:39:59.754Z,20.77
2019-02-17T15:42:29.928Z,17.53
2019-02-17T15:45:00.275Z,21.63
2019-02-17T15:47:29.927Z,20.83
2019-02-17T15:49:59.568Z,19.93
2019-02-17T15:52:30.178Z,21.70
2019-02-17T15:54:59.895Z,20.93
2019-02-17T15:57:29.522Z,20.33
2019-02-17T15:59:59.757Z,20.80
2019-02-17T16:02:29.445Z,23.50
2019-02-17T16:04:59.017Z,28.67
2019-02-17T16:07:29.269Z,14.23
2019-02-17T16:09:59.041Z,18.77
2019-02-17T16:12:28.639Z,23.07
2019-02-17T16:14:58.192Z,17.10
2019-02-17T16:17:28.483Z,16.20
2019-02-17T16:19:58.167Z,23.87
2019-02-17T16:22:28.427Z,20.47
2019-02-17T16:24:58.095Z,18.00
2019-02-17T16:27:28.387Z,23.87
2019-02-17T16:29:58.050Z,20.17
2019-02-17T16:32:28.297Z,21.23
2019-02-17T16:34:57.960Z,24.00
2019-02-17T16:37:27.564Z,16.23
2019-02-17T16:39:57.253Z,21.57
2019-02-17T16:42:26.843Z,24.87
2019-02-17T16:44:56.443Z,21.53
2019-02-17T16:47:26.019Z,19.17
2019-02-17T16:49:56.251Z,22.43
2019-02-17T16:52:26.613Z,30.60
2019-02-17T16:54:56.995Z,21.40
2019-02-17T16:57:27.299Z,18.03
2019-02-17T16:59:56.978Z,19.50
2019-02-17T17:02:27.252Z,22.13
2019-02-17T17:04:56.931Z,23.87
2019-02-17T17:07:26.547Z,18.20
2019-02-17T17:09:56.104Z,22.00
2019-02-17T17:12:26.378Z,22.93
2019-02-17T17:14:56.034Z,21.87
2019-02-17T17:17:25.534Z,26.47
2019-02-17T17:19:55.110Z,18.47
2019-02-17T17:22:24.608Z,20.10
2019-02-17T17:24:54.219Z,17.03
2019-02-17T17:27:23.847Z,16.10
2019-02-17T17:29:54.071Z,30.33
2019-02-17T17:32:23.751Z,18.67
2019-02-17T17:34:58.958Z,17.57
2019-02-17T17:37:25.955Z,21.80
2019-02-17T17:39:55.638Z,23.10
2019-02-17T17:42:25.255Z,27.63
2019-02-17T17:44:55.565Z,23.57
2019-02-17T17:47:25.319Z,27.47
2019-02-17T17:49:55.620Z,18.67
2019-02-17T17:52:25.975Z,16.63
2019-02-17T17:54:55.634Z,17.43
2019-02-17T17:57:25.919Z,19.43
2019-02-17T17:59:55.645Z,16.50
2019-02-17T18:02:25.899Z,22.37
2019-02-17T18:04:56.229Z,17.70
2019-02-17T18:07:26.583Z,22.60
2019-02-17T18:09:56.303Z,22.23
2019-02-17T18:12:25.906Z,16.37
2019-02-17T18:14:56.180Z,25.47
2019-02-17T18:17:25.894Z,20.80
2019-02-17T18:19:55.454Z,20.70
2019-02-17T18:22:25.028Z,19.50
2019-02-17T18:24:54.827Z,27.53
2019-02-17T18:27:24.404Z,22.63
2019-02-17T18:29:53.960Z,22.47
2019-02-17T18:32:23.599Z,23.93
2019-02-17T18:34:53.659Z,24.17
2019-02-17T18:37:23.275Z,22.87
2019-02-17T18:39:53.195Z,18.70
2019-02-17T18:42:22.803Z,30.10
2019-02-17T18:44:52.508Z,25.00
2019-02-17T18:47:22.095Z,24.00
2019-02-17T18:49:51.759Z,25.43
2019-02-17T18:52:22.012Z,22.40
2019-02-17T18:54:52.070Z,20.83
2019-02-17T18:57:21.637Z,20.93
2019-02-17T18:59:51.332Z,24.17
2019-02-17T19:02:20.924Z,29.93
2019-02-17T19:04:50.781Z,21.43
2019-02-17T19:07:20.944Z,19.30
2019-02-17T19:09:51.063Z,23.73
2019-02-17T19:12:20.676Z,25.53
2019-02-17T19:14:50.317Z,23.97
2019-02-17T19:17:20.947Z,24.70
2019-02-17T19:19:51.267Z,24.40
2019-02-17T19:22:21.255Z,22.73
2019-02-17T19:24:50.819Z,20.50
2019-02-17T19:27:20.383Z,23.30
2019-02-17T19:29:49.992Z,23.03
2019-02-17T19:32:20.781Z,22.37
2019-02-17T19:34:50.499Z,21.37
2019-02-17T19:37:20.174Z,24.20
2019-02-17T19:39:50.420Z,23.53
2019-02-17T19:42:20.227Z,25.90
2019-02-17T19:44:49.881Z,23.87
2019-02-17T19:47:19.652Z,22.03
2019-02-17T19:49:49.247Z,32.53
2019-02-17T19:52:19.925Z,27.20
2019-02-17T19:54:49.570Z,26.60
2019-02-17T19:57:19.144Z,26.53
2019-02-17T19:59:49.431Z,27.87
2019-02-17T20:02:27.054Z,32.43
2019-02-17T20:05:17.615Z,28.50
2019-02-17T20:07:47.834Z,28.27
2019-02-17T20:10:18.183Z,32.77
2019-02-17T20:12:47.903Z,28.83
2019-02-17T20:15:17.647Z,23.73
2019-02-17T20:17:47.219Z,23.90
2019-02-17T20:20:16.858Z,23.67
2019-02-17T20:22:46.423Z,22.33
2019-02-17T20:25:16.012Z,25.33
2019-02-17T20:27:46.288Z,15.97
2019-02-17T20:30:15.999Z,27.60
2019-02-17T20:32:45.586Z,33.60
2019-02-17T20:35:15.168Z,20.67
2019-02-17T20:37:44.778Z,30.47
2019-02-17T20:40:14.452Z,24.90
2019-02-17T20:42:44.034Z,25.50
2019-02-17T20:45:14.804Z,33.10
2019-02-17T20:47:44.489Z,22.53
2019-02-17T20:50:14.175Z,20.83
2019-02-17T20:52:44.391Z,24.77
2019-02-17T20:55:14.291Z,25.90
2019-02-17T20:57:44.781Z,30.25
2019-02-17T21:00:15.184Z,22.70
2019-02-17T21:02:45.510Z,18.27
2019-02-17T21:05:15.181Z,27.03
2019-02-17T21:07:45.394Z,22.73
2019-02-17T21:10:15.921Z,18.33
2019-02-17T21:12:45.587Z,23.67
2019-02-17T21:15:17.387Z,22.10
2019-02-17T21:17:47.067Z,26.33
2019-02-17T21:20:17.836Z,23.00
2019-02-17T21:22:47.506Z,23.10
2019-02-17T21:25:17.851Z,20.30
2019-02-17T21:27:47.510Z,24.80
2019-02-17T21:30:17.135Z,22.60
2019-02-17T21:32:47.616Z,18.00
2019-02-17T21:35:17.306Z,23.17
2019-02-17T21:37:47.540Z,21.23
2019-02-17T21:40:17.251Z,19.17
2019-02-17T21:42:46.839Z,28.53
2019-02-17T21:45:16.483Z,20.50
2019-02-17T21:47:46.155Z,22.57
2019-02-17T21:50:16.389Z,21.67
2019-02-17T21:52:46.077Z,20.97
2019-02-17T21:55:15.642Z,17.07
2019-02-17T21:57:45.889Z,21.13
2019-02-17T22:00:16.752Z,26.33
2019-02-17T22:02:47.110Z,31.97
2019-02-17T22:05:16.903Z,23.00
2019-02-17T22:07:46.494Z,23.97
2019-02-17T22:10:16.251Z,20.47
2019-02-17T22:12:45.840Z,28.33
2019-02-17T22:15:15.786Z,25.43
2019-02-17T22:17:45.335Z,18.07
2019-02-17T22:20:15.063Z,26.83
2019-02-17T22:22:45.296Z,22.63
2019-02-17T22:25:16.055Z,31.77
2019-02-17T22:27:46.597Z,21.90
2019-02-17T22:30:16.284Z,25.50
2019-02-17T22:32:45.910Z,28.80
2019-02-17T22:35:16.139Z,27.20
2019-02-17T22:37:45.809Z,20.90
2019-02-17T22:40:16.054Z,31.63
2019-02-17T22:42:45.738Z,16.90
2019-02-17T22:45:15.324Z,24.30
2019-02-17T22:47:45.571Z,28.07
2019-02-17T22:50:15.904Z,32.00
2019-02-17T22:52:46.276Z,29.30
2019-02-17T22:55:16.557Z,28.90
2019-02-17T22:57:46.248Z,31.33
2019-02-17T23:00:50.393Z,34.40
2019-02-17T23:03:21.274Z,34.97
2019-02-17T23:05:51.571Z,28.57
2019-02-17T23:08:21.916Z,23.33
2019-02-17T23:10:52.392Z,29.90
2019-02-17T23:13:22.833Z,27.60
2019-02-17T23:15:53.165Z,28.17
2019-02-17T23:18:24.186Z,40.55
2019-02-17T23:20:54.523Z,28.10
2019-02-17T23:23:24.977Z,26.27
2019-02-17T23:25:55.296Z,31.53
2019-02-17T23:28:25.628Z,28.20
2019-02-17T23:30:55.300Z,36.43
2019-02-17T23:33:25.545Z,25.87
2019-02-17T23:35:56.055Z,32.33
2019-02-17T23:38:25.699Z,32.67
2019-02-17T23:40:55.939Z,28.63
2019-02-17T23:43:26.259Z,29.63
2019-02-17T23:45:56.599Z,28.50
2019-02-17T23:48:26.919Z,24.30
2019-02-17T23:50:57.274Z,32.93
2019-02-17T23:53:27.579Z,28.98
2019-02-17T23:55:57.912Z,32.20
2019-02-17T23:58:28.231Z,31.07
